Time;durP1;ratioP1;P1;durP2;ratioP2;P2;SDS_P1;SDS_P2;PMS_P1;PMS_P2;Temp;Humidity;BMP_temperature;BMP_pressure;BME280_temperature;BME280_humidity;BME280_pressure;Samples;Min_cycle;Max_cycle;Signal;HPM_P1;HPM_P2
2023/04/03 00:01:13;;;;;;;3.10;2.23;;;5.80;62.70;;;9.06;43.56;98347.84;5061173;28;20055;-44
2023/04/03 00:03:41;;;;;;;3.23;2.10;;;5.80;62.60;;;9.04;43.64;98348.97;5057955;28;20056;-46
2023/04/03 00:06:11;;;;;;;3.47;2.23;;;5.80;62.70;;;9.04;43.48;98351.63;5061081;28;20056;-44
2023/04/03 00:08:40;;;;;;;3.30;2.13;;;5.70;62.70;;;9.01;43.50;98349.22;5061940;28;20059;-45
2023/04/03 00:11:09;;;;;;;3.57;2.43;;;5.80;62.80;;;9.00;43.46;98345.72;5061798;28;20056;-44
2023/04/03 00:13:37;;;;;;;3.77;2.80;;;5.80;62.80;;;8.99;43.53;98348.50;5058044;28;20044;-44
2023/04/03 00:16:06;;;;;;;4.77;2.30;;;5.70;62.50;;;8.98;43.56;98350.34;5060417;28;20044;-44
2023/04/03 00:18:35;;;;;;;3.43;2.20;;;5.80;62.80;;;8.97;43.66;98350.47;5058966;28;20532;-44
2023/04/03 00:21:04;;;;;;;3.00;2.03;;;5.80;62.80;;;8.98;43.81;98357.47;5062054;28;20112;-46
2023/04/03 00:23:33;;;;;;;4.13;2.27;;;5.80;62.70;;;8.97;43.66;98348.63;5058779;28;20047;-45
2023/04/03 00:26:01;;;;;;;3.60;2.33;;;5.80;63.00;;;8.99;43.73;98359.13;5059782;28;20054;-53
2023/04/03 00:28:29;;;;;;;3.50;2.33;;;5.80;63.10;;;9.00;43.71;98352.88;5063149;28;20065;-57
2023/04/03 00:30:56;;;;;;;3.07;2.00;;;5.80;62.80;;;8.99;43.71;98349.34;5063062;28;20036;-54
2023/04/03 00:33:24;;;;;;;3.67;2.73;;;5.80;62.70;;;8.95;43.79;98350.59;5049128;28;20528;-55
2023/04/03 00:35:52;;;;;;;2.87;2.23;;;5.80;62.60;;;8.94;43.73;98351.56;5056639;28;20049;-46
2023/04/03 00:38:20;;;;;;;3.90;2.27;;;5.80;62.90;;;8.94;43.73;98353.41;5060506;28;20045;-44
2023/04/03 00:40:49;;;;;;;5.40;2.43;;;5.70;63.00;;;8.91;43.73;98345.69;5062783;28;20044;-43
2023/04/03 00:43:24;;;;;;;3.07;2.10;;;5.70;62.90;;;8.87;43.79;98348.59;5059931;28;20424;-44
2023/04/03 00:45:55;;;;;;;4.00;2.07;;;5.70;63.00;;;8.85;43.52;98349.72;5066255;28;20056;-43
2023/04/03 00:48:32;;;;;;;2.60;1.97;;;5.60;63.50;;;8.84;43.80;98348.88;5061113;28;20425;-44
2023/04/03 00:51:02;;;;;;;5.97;3.00;;;5.60;63.70;;;8.82;43.83;98348.19;5061651;28;20151;-44
2023/04/03 00:53:41;;;;;;;8.73;4.73;;;5.60;63.70;;;8.83;43.72;98343.69;5049552;28;20052;-54
2023/04/03 00:56:14;;;;;;;4.77;2.40;;;5.50;64.00;;;8.84;44.17;98348.00;5042188;28;20055;-56
2023/04/03 00:58:59;;;;;;;4.47;2.70;;;5.50;64.20;;;8.82;43.93;98344.66;5044502;28;20052;-56
2023/04/03 01:01:29;;;;;;;4.13;2.47;;;5.50;64.10;;;8.82;43.87;98342.88;5060684;28;20051;-54
2023/04/03 01:03:59;;;;;;;4.70;2.13;;;5.50;64.20;;;8.79;43.77;98344.94;5060700;28;20047;-56
2023/04/03 01:06:33;;;;;;;3.60;1.87;;;5.60;63.80;;;8.75;44.06;98341.72;5060637;28;20041;-54
2023/04/03 01:09:08;;;;;;;2.83;1.90;;;5.50;64.00;;;8.76;44.22;98339.88;5059738;28;20059;-54
2023/04/03 01:11:36;;;;;;;3.00;2.10;;;5.50;64.30;;;8.75;43.94;98339.06;5057834;28;20055;-51
2023/04/03 01:14:05;;;;;;;3.00;2.07;;;5.50;64.20;;;8.75;44.10;98341.72;5057089;28;20529;-54
2023/04/03 01:16:33;;;;;;;3.33;2.23;;;5.50;64.50;;;8.73;43.91;98338.34;5061077;28;20421;-55
2023/04/03 01:19:03;;;;;;;3.37;2.47;;;5.40;64.20;;;8.69;44.18;98338.75;5062330;28;20505;-57
2023/04/03 01:22:03;;;;;;;3.60;2.57;;;5.40;64.80;;;8.64;44.23;98341.78;5049575;28;20052;-55
2023/04/03 01:24:38;;;;;;;3.07;2.20;;;5.40;64.50;;;8.64;44.31;98341.78;5028402;28;20041;-55
2023/04/03 01:27:10;;;;;;;4.57;2.13;;;5.30;65.20;;;8.62;44.34;98339.25;5039483;28;20041;-52
2023/04/03 01:29:38;;;;;;;5.13;2.93;;;5.30;65.50;;;8.56;44.33;98342.44;5060656;28;20120;-57
2023/04/03 01:32:06;;;;;;;5.57;3.40;;;5.20;65.70;;;8.55;44.49;98346.09;5043696;28;20421;-54
2023/04/03 01:34:33;;;;;;;4.07;2.80;;;5.20;65.80;;;8.54;44.50;98346.22;5057136;28;20064;-55
2023/04/03 01:37:01;;;;;;;5.70;2.70;;;5.20;65.80;;;8.51;44.39;98344.66;5053941;28;20056;-54
2023/04/03 01:39:29;;;;;;;5.63;2.37;;;5.20;66.00;;;8.51;44.57;98346.47;5062208;28;20040;-56
2023/04/03 01:41:59;;;;;;;4.23;2.47;;;5.20;65.80;;;8.51;44.51;98343.81;5060805;28;20048;-57
2023/04/03 01:44:30;;;;;;;;;;;5.20;66.00;;;8.52;44.55;98349.00;5057306;28;20049;-56
2023/04/03 01:46:58;;;;;;;3.43;2.17;;;5.10;66.00;;;8.55;44.05;98347.88;5059737;28;19921;-55
2023/04/03 01:49:28;;;;;;;3.67;1.83;;;5.10;65.80;;;8.53;44.23;98350.69;5063405;28;20052;-56
2023/04/03 01:51:56;;;;;;;3.20;2.10;;;5.10;65.80;;;8.50;44.41;98342.13;5065746;28;20051;-56
2023/04/03 01:54:23;;;;;;;3.87;2.10;;;5.10;65.60;;;8.49;44.46;98354.53;5062390;28;20532;-43
2023/04/03 01:56:52;;;;;;;3.77;2.17;;;5.10;65.60;;;8.47;44.38;98352.03;5058795;28;20052;-44
2023/04/03 01:59:20;;;;;;;3.30;2.00;;;5.10;65.40;;;8.45;44.26;98348.69;5062233;28;20051;-45
2023/04/03 02:01:48;;;;;;;3.33;2.33;;;5.20;65.10;;;8.46;44.40;98353.00;5060522;28;20064;-44
2023/04/03 02:04:15;;;;;;;3.87;2.10;;;5.20;65.20;;;8.45;44.61;98356.66;5062495;28;20045;-44
2023/04/03 02:06:43;;;;;;;4.83;2.30;;;5.10;65.40;;;8.44;44.58;98354.13;5064580;28;20049;-43
2023/04/03 02:09:11;;;;;;;4.30;2.23;;;5.10;65.20;;;8.42;44.69;98351.59;5063048;28;20524;-45
2023/04/03 02:11:38;;;;;;;2.20;1.80;;;5.10;65.30;;;8.45;44.59;98348.69;5060301;28;20041;-44
2023/04/03 02:14:06;;;;;;;11.33;5.00;;;5.20;65.60;;;8.45;44.67;98353.13;5059875;28;20053;-43
2023/04/03 02:16:34;;;;;;;4.80;2.70;;;5.20;65.10;;;8.45;44.77;98355.78;5052365;28;20049;-42
2023/04/03 02:19:01;;;;;;;2.77;2.30;;;5.20;65.30;;;8.45;44.55;98353.13;5060495;28;20433;-43
2023/04/03 02:21:30;;;;;;;2.53;2.20;;;5.10;65.20;;;8.43;44.61;98352.41;5062929;28;20048;-45
2023/04/03 02:23:58;;;;;;;4.30;2.47;;;5.10;65.20;;;8.43;44.70;98358.59;5062438;28;20044;-42
2023/04/03 02:26:26;;;;;;;3.63;2.43;;;5.10;65.30;;;8.44;44.66;98352.28;5060948;28;20080;-44
2023/04/03 02:28:54;;;;;;;3.10;2.13;;;5.20;65.10;;;8.46;44.29;98355.66;5059890;28;20505;-43
2023/04/03 02:31:23;;;;;;;3.70;2.53;;;5.20;64.70;;;8.45;44.30;98355.78;5061539;28;20075;-43
2023/04/03 02:33:52;;;;;;;3.33;2.63;;;5.20;64.60;;;8.47;44.24;98356.50;5063237;28;20049;-44
2023/04/03 02:36:19;;;;;;;3.40;2.60;;;5.20;64.60;;;8.48;44.48;98363.50;5045496;28;20045;-42
2023/04/03 02:38:52;;;;;;;4.45;2.33;;;5.10;64.20;;;8.50;44.09;98366.84;5060277;28;20502;-55
2023/04/03 02:41:21;;;;;;;3.50;2.60;;;5.10;64.00;;;8.51;44.01;98359.72;5068135;28;20049;-52
2023/04/03 02:43:51;;;;;;;4.53;2.53;;;5.10;64.60;;;8.46;43.93;98355.66;5062304;28;20048;-54
2023/04/03 02:46:18;;;;;;;3.03;2.33;;;5.00;63.80;;;8.44;43.96;98351.47;5061510;28;20052;-55
2023/04/03 02:48:46;;;;;;;5.03;2.30;;;5.00;63.70;;;8.44;43.89;98349.63;5059528;28;20060;-54
2023/04/03 02:51:13;;;;;;;4.57;2.70;;;5.00;63.60;;;8.43;44.01;98355.06;5060533;28;20045;-52
2023/04/03 02:53:41;;;;;;;5.77;3.00;;;5.00;63.60;;;8.44;43.56;98351.47;5062869;28;20433;-56
2023/04/03 02:56:16;;;;;;;6.75;3.03;;;5.00;63.60;;;8.43;43.79;98352.41;5061474;28;20052;-54
2023/04/03 02:58:44;;;;;;;3.90;2.77;;;5.00;63.70;;;8.42;43.63;98348.09;5058400;28;20048;-56
2023/04/03 03:01:12;;;;;;;4.30;3.03;;;5.00;63.60;;;8.38;43.92;98350.13;5061484;28;20056;-54
2023/04/03 03:03:40;;;;;;;4.40;2.93;;;5.00;63.50;;;8.36;43.66;98352.06;5062614;28;20055;-55
2023/04/03 03:06:13;;;;;;;2.57;2.00;;;4.90;64.40;;;8.36;43.78;98346.78;5063071;28;20063;-54
2023/04/03 03:08:41;;;;;;;3.63;2.67;;;4.90;63.30;;;8.36;43.42;98345.94;5053610;28;20052;-53
2023/04/03 03:11:09;;;;;;;3.67;2.17;;;4.90;63.20;;;8.35;43.62;98337.13;5059016;28;20048;-58
2023/04/03 03:13:37;;;;;;;3.13;2.50;;;4.90;62.90;;;8.36;43.33;98341.47;5052582;28;20052;-54
2023/04/03 03:16:05;;;;;;;4.20;2.50;;;4.90;62.70;;;8.34;43.10;98343.41;5068389;28;20041;-55
2023/04/03 03:18:34;;;;;;;4.47;2.97;;;4.90;62.00;;;8.32;43.26;98336.53;5060819;28;20422;-56
2023/04/03 03:21:04;;;;;;;3.33;2.23;;;4.90;62.00;;;8.30;42.80;98342.00;5057081;28;20064;-54
2023/04/03 03:23:33;;;;;;;3.83;2.60;;;4.90;61.20;;;8.29;42.95;98333.16;5061760;28;20048;-51
2023/04/03 03:26:07;;;;;;;2.40;2.20;;;4.90;61.20;;;8.32;42.73;98341.84;5030018;28;20425;-54
2023/04/03 03:28:37;;;;;;;3.17;2.40;;;5.00;60.70;;;8.29;42.63;98335.81;5042989;28;20044;-55
2023/04/03 03:31:07;;;;;;;3.63;2.73;;;4.90;61.00;;;8.30;42.98;98334.03;5059360;28;20041;-54
2023/04/03 03:33:37;;;;;;;4.70;2.40;;;4.90;61.10;;;8.29;42.75;98333.16;5047124;28;20046;-55
2023/04/03 03:36:05;;;;;;;5.13;2.70;;;4.90;61.20;;;8.32;42.68;98337.41;5056062;28;20045;-54
2023/04/03 03:38:33;;;;;;;4.30;2.70;;;4.90;61.40;;;8.31;42.73;98329.56;5063137;28;20040;-56
2023/04/03 03:41:01;;;;;;;4.40;2.50;;;4.90;61.20;;;8.32;43.01;98334.75;5046066;28;20055;-56
2023/04/03 03:43:31;;;;;;;3.10;2.43;;;4.90;61.50;;;8.33;42.89;98332.91;5058859;28;20516;-54
2023/04/03 03:45:58;;;;;;;3.57;2.23;;;5.00;61.20;;;8.34;42.78;98332.78;5065051;28;20052;-55
2023/04/03 03:48:27;;;;;;;2.77;2.00;;;5.10;60.60;;;8.32;42.63;98331.22;5059551;28;20056;-55
2023/04/03 03:50:56;;;;;;;4.20;2.50;;;5.10;60.60;;;8.31;42.71;98338.34;5041350;28;20049;-54
2023/04/03 03:53:28;;;;;;;4.37;2.33;;;5.10;60.40;;;8.33;42.62;98335.56;5058681;28;20056;-55
2023/04/03 03:55:59;;;;;;;3.10;2.20;;;5.10;60.70;;;8.32;42.86;98340.03;5061983;28;20044;-54
2023/04/03 03:58:29;;;;;;;2.97;2.40;;;5.10;60.60;;;8.32;42.47;98339.19;5059455;28;20045;-53
2023/04/03 04:01:01;;;;;;;4.17;2.27;;;5.10;60.50;;;8.30;43.04;98339.34;5038794;28;20049;-56
2023/04/03 04:03:30;;;;;;;4.50;1.90;;;5.10;60.50;;;8.33;42.96;98344.38;5057810;28;20072;-56
2023/04/03 04:05:58;;;;;;;2.70;2.10;;;5.10;61.20;;;8.35;43.20;98337.13;5061933;28;20106;-54
2023/04/03 04:08:25;;;;;;;3.30;2.60;;;5.10;61.30;;;8.34;43.12;98339.94;5060167;28;20489;-56
2023/04/03 04:10:53;;;;;;;5.10;3.50;;;5.10;61.40;;;8.36;43.03;98344.13;5058012;28;20045;-52
2023/04/03 04:13:21;;;;;;;4.90;2.47;;;5.10;61.50;;;8.38;43.07;98338.69;5058554;28;20056;-53
2023/04/03 04:15:49;;;;;;;2.90;2.57;;;5.10;61.10;;;8.41;42.73;98335.75;5061363;28;20060;-53
2023/04/03 04:18:17;;;;;;;5.70;2.33;;;5.10;61.30;;;8.42;42.82;98338.31;5061033;28;20045;-56
2023/04/03 04:20:47;;;;;;;3.40;2.43;;;5.10;61.10;;;8.38;42.63;98336.88;5057868;28;20045;-54
2023/04/03 04:23:18;;;;;;;3.43;2.30;;;5.00;60.80;;;8.40;42.56;98334.09;5057014;28;20053;-53
2023/04/03 04:25:48;;;;;;;3.40;2.20;;;5.00;59.70;;;8.39;42.18;98343.00;5061420;28;20044;-56
2023/04/03 04:28:17;;;;;;;3.37;2.50;;;5.00;60.00;;;8.38;42.39;98342.16;5061009;28;20040;-53
2023/04/03 04:30:46;;;;;;;4.30;2.40;;;5.00;60.00;;;8.38;42.13;98366.06;5057863;28;20045;-56
2023/04/03 04:33:16;;;;;;;4.70;2.70;;;5.00;60.00;;;8.38;42.19;98349.31;5057845;28;20048;-51
2023/04/03 04:35:48;;;;;;;4.00;2.90;;;5.00;59.90;;;8.36;42.20;98343.28;5061482;28;20417;-50
2023/04/03 04:38:18;;;;;;;4.88;2.60;;;5.00;60.40;;;8.37;42.38;98348.44;5060927;28;20051;-56
2023/04/03 04:40:47;;;;;;;3.20;2.30;;;5.00;60.50;;;8.36;42.22;98352.06;5057790;28;20049;-55
2023/04/03 04:43:15;;;;;;;3.93;2.80;;;5.00;60.20;;;8.36;42.50;98346.78;5053879;28;20407;-54
2023/04/03 04:45:45;;;;;;;3.00;2.40;;;4.90;60.60;;;8.36;42.23;98341.47;5063938;28;20042;-53
2023/04/03 04:48:13;;;;;;;3.40;2.70;;;5.00;60.50;;;8.36;42.46;98345.94;5053534;28;20073;-55
2023/04/03 04:50:40;;;;;;;6.37;3.57;;;5.00;60.50;;;8.31;42.18;98343.66;5059481;28;20049;-53
2023/04/03 04:53:08;;;;;;;3.83;2.40;;;4.90;59.50;;;8.27;41.66;98351.03;5057701;28;20272;-55
2023/04/03 04:55:35;;;;;;;3.13;2.27;;;4.90;58.80;;;8.26;41.64;98346.72;5060023;28;20056;-56
2023/04/03 04:58:04;;;;;;;4.70;3.07;;;4.90;58.80;;;8.26;41.55;98359.97;5060537;28;20052;-55
2023/04/03 05:00:31;;;;;;;3.90;2.63;;;4.90;58.90;;;8.28;42.00;98359.84;5058568;28;20041;-55
2023/04/03 05:02:59;;;;;;;3.87;2.50;;;4.90;58.90;;;8.27;41.79;98356.34;5058401;28;20052;-55
2023/04/03 05:05:27;;;;;;;2.80;2.23;;;4.90;58.90;;;8.29;41.63;98358.88;5058948;28;20041;-55
2023/04/03 05:07:55;;;;;;;4.00;2.40;;;5.00;59.00;;;8.28;42.01;98368.63;5061353;28;20055;-55
2023/04/03 05:10:23;;;;;;;3.43;2.33;;;5.10;59.10;;;8.27;42.10;98374.91;5059870;28;20060;-56
2023/04/03 05:12:51;;;;;;;2.90;2.17;;;5.00;59.30;;;8.23;42.08;98381.44;5058626;28;20041;-55
2023/04/03 05:15:19;;;;;;;3.50;2.20;;;5.00;59.70;;;8.20;42.21;98379.06;5057498;28;20426;-54
2023/04/03 05:17:47;;;;;;;3.13;2.20;;;5.10;59.90;;;8.21;42.33;98379.91;5062206;28;20039;-54
2023/04/03 05:20:15;;;;;;;4.10;2.60;;;5.10;59.70;;;8.12;42.65;98384.13;5055900;28;20052;-52
2023/04/03 05:22:45;;;;;;;3.47;2.10;;;5.00;59.50;;;8.09;42.85;98379.94;5051425;28;20048;-54
2023/04/03 05:25:13;;;;;;;4.80;2.83;;;5.00;60.00;;;8.09;42.63;98377.28;5060560;28;20056;-55
2023/04/03 05:27:44;;;;;;;5.03;2.30;;;5.00;60.50;;;8.12;42.76;98383.31;5060954;28;20426;-55
2023/04/03 05:30:13;;;;;;;4.40;2.33;;;5.00;60.50;;;8.15;43.04;98378.59;5060978;28;20056;-55
2023/04/03 05:32:42;;;;;;;5.40;2.47;;;5.00;60.80;;;8.16;43.08;98384.72;5067183;28;20049;-55
2023/04/03 05:35:16;;;;;;;3.70;2.23;;;5.00;60.70;;;8.15;42.93;98378.59;5062886;28;20041;-53
2023/04/03 05:37:45;;;;;;;3.17;2.33;;;5.00;60.80;;;8.15;42.74;98385.72;5041239;28;20422;-58
2023/04/03 05:40:15;;;;;;;2.87;1.83;;;5.10;60.60;;;8.12;43.13;98388.59;5057037;28;20052;-56
2023/04/03 05:42:47;;;;;;;3.40;2.43;;;5.10;60.60;;;8.17;42.87;98381.97;5052761;28;20053;-55
2023/04/03 05:45:16;;;;;;;3.20;2.30;;;5.00;60.60;;;8.17;43.04;98392.56;5045211;28;20045;-55
2023/04/03 05:47:44;;;;;;;3.20;2.50;;;5.10;60.80;;;8.20;42.89;98387.03;5061065;28;20445;-53
2023/04/03 05:50:12;;;;;;;5.67;2.40;;;5.10;60.70;;;8.19;42.89;98389.78;5064562;28;20536;-57
2023/04/03 05:52:44;;;;;;;5.80;2.80;;;5.10;60.80;;;8.16;42.89;98388.25;5062629;28;20063;-52
2023/04/03 05:55:12;;;;;;;5.57;3.10;;;5.10;60.40;;;8.09;42.99;98393.19;5047687;28;20075;-56
2023/04/03 05:57:40;;;;;;;5.97;3.33;;;5.10;60.80;;;8.08;43.21;98398.63;5062593;28;20060;-51
2023/04/03 06:00:14;;;;;;;6.23;3.33;;;5.10;60.90;;;8.14;42.89;98397.28;5060690;28;20049;-54
2023/04/03 06:02:43;;;;;;;6.13;2.60;;;5.10;61.00;;;8.18;42.97;98401.34;5055701;28;20048;-55
2023/04/03 06:05:17;;;;;;;4.67;2.47;;;5.10;60.40;;;8.17;42.98;98400.53;5064276;28;20067;-55
2023/04/03 06:07:46;;;;;;;4.17;2.20;;;5.00;60.30;;;8.18;42.48;98402.22;5053942;28;20037;-54
2023/04/03 06:10:14;;;;;;;3.07;2.53;;;5.00;60.50;;;8.19;42.80;98403.88;5061737;28;20057;-51
2023/04/03 06:12:42;;;;;;;4.83;2.10;;;5.00;61.20;;;8.20;42.38;98405.59;5062287;28;20040;-52
2023/04/03 06:15:10;;;;;;;3.50;1.97;;;5.00;60.10;;;8.20;42.46;98404.72;5063822;28;20044;-53
2023/04/03 06:17:37;;;;;;;3.50;2.33;;;5.10;60.10;;;8.24;42.34;98408.84;5061644;28;20049;-55
2023/04/03 06:20:06;;;;;;;3.77;2.07;;;5.00;60.20;;;8.24;42.57;98407.00;5058918;28;20041;-53
2023/04/03 06:22:35;;;;;;;4.27;2.30;;;5.00;60.00;;;8.27;42.68;98413.88;5051008;28;20052;-56
2023/04/03 06:25:03;;;;;;;2.70;1.83;;;5.00;60.20;;;8.26;42.65;98413.03;5060136;28;20418;-54
2023/04/03 06:27:30;;;;;;;3.13;2.13;;;5.10;60.30;;;8.27;42.63;98417.34;5062329;28;20406;-57
2023/04/03 06:29:58;;;;;;;3.13;2.40;;;5.10;60.30;;;8.30;42.82;98416.28;5054389;28;20041;-53
2023/04/03 06:32:26;;;;;;;3.00;2.10;;;5.10;60.40;;;8.24;42.64;98411.47;5059809;28;20048;-54
2023/04/03 06:34:53;;;;;;;3.37;2.43;;;5.10;60.40;;;8.24;42.82;98416.78;5061557;28;20041;-56
2023/04/03 06:37:22;;;;;;;2.83;2.20;;;5.10;60.30;;;8.27;42.79;98414.69;5061433;28;20041;-55
2023/04/03 06:39:50;;;;;;;2.87;2.27;;;5.20;60.10;;;8.24;42.68;98416.78;5053613;28;20525;-56
2023/04/03 06:42:18;;;;;;;3.70;1.90;;;5.20;59.90;;;8.19;42.97;98416.31;5061019;28;20037;-55
2023/04/03 06:44:53;;;;;;;4.93;2.37;;;5.10;60.00;;;8.18;42.74;98412.84;5059748;28;20036;-53
2023/04/03 06:47:20;;;;;;;4.47;2.27;;;5.20;59.60;;;8.14;42.66;98418.50;5061283;28;20056;-55
2023/04/03 06:49:48;;;;;;;3.50;2.50;;;5.10;59.70;;;8.18;42.83;98418.13;5053085;28;20048;-56
2023/04/03 06:52:16;;;;;;;5.73;2.77;;;5.10;60.10;;;8.22;42.84;98424.88;5060706;28;20052;-55
2023/04/03 06:54:43;;;;;;;3.10;2.23;;;5.20;60.00;;;8.27;42.65;98424.47;5063416;28;20053;-55
2023/04/03 06:57:11;;;;;;;2.83;2.10;;;5.30;60.00;;;8.27;43.04;98422.66;5064419;28;20047;-57
2023/04/03 06:59:39;;;;;;;3.23;2.30;;;5.30;60.00;;;8.26;42.75;98430.75;5062453;28;20411;-56
2023/04/03 07:02:12;;;;;;;3.87;2.47;;;5.30;60.20;;;8.33;43.31;98439.88;5059268;28;20517;-55
2023/04/03 07:04:40;;;;;;;3.40;2.27;;;5.30;60.40;;;8.43;43.18;98432.88;5061515;28;20472;-55
2023/04/03 07:07:08;;;;;;;4.30;2.37;;;5.40;60.60;;;8.50;42.82;98433.19;5064139;28;20063;-54
2023/04/03 07:09:35;;;;;;;4.20;2.57;;;5.40;60.00;;;8.57;42.88;98442.34;5062733;28;20041;-51
2023/04/03 07:12:03;;;;;;;3.17;2.40;;;5.50;60.30;;;8.63;42.64;98447.13;5060596;28;20041;-54
2023/04/03 07:14:31;;;;;;;3.80;2.40;;;5.40;60.40;;;8.71;42.64;98441.16;5061621;28;20030;-56
2023/04/03 07:16:58;;;;;;;3.33;2.40;;;5.50;60.50;;;8.74;42.63;98445.38;5064153;28;20047;-56
2023/04/03 07:19:27;;;;;;;3.33;2.70;;;5.50;60.20;;;8.83;42.77;98450.75;5063692;28;20041;-55
2023/04/03 07:21:55;;;;;;;4.43;2.70;;;5.60;61.40;;;8.91;42.72;98451.91;5060385;28;20029;-54
2023/04/03 07:24:23;;;;;;;3.30;2.43;;;5.60;61.20;;;8.98;42.71;98453.06;5058372;28;20041;-55
2023/04/03 07:26:52;;;;;;;3.93;3.00;;;5.70;61.10;;;9.01;42.64;98448.31;5052353;28;20044;-53
2023/04/03 07:29:21;;;;;;;4.23;2.43;;;5.70;61.10;;;9.05;42.72;98452.41;5060653;28;20037;-55
2023/04/03 07:31:49;;;;;;;4.43;2.47;;;5.70;61.10;;;9.10;42.48;98457.31;5062246;28;20421;-55
2023/04/03 07:34:16;;;;;;;5.50;2.70;;;5.80;60.60;;;9.09;42.66;98452.97;5062540;28;20051;-55
2023/04/03 07:36:44;;;;;;;4.80;2.77;;;5.80;60.10;;;9.13;42.12;98459.72;5061056;28;20603;-54
2023/04/03 07:39:12;;;;;;;4.10;2.57;;;5.80;60.40;;;9.14;42.46;98458.75;5060373;28;20524;-55
2023/04/03 07:41:39;;;;;;;2.77;2.23;;;5.80;60.80;;;9.14;42.55;98465.88;5061910;28;20413;-55
2023/04/03 07:44:09;;;;;;;4.60;3.20;;;5.80;60.40;;;9.09;42.34;98460.09;5062983;28;20413;-56
2023/04/03 07:46:38;;;;;;;3.43;2.50;;;5.90;60.30;;;9.09;42.50;98463.59;5061755;28;20044;-52
2023/04/03 07:49:05;;;;;;;3.47;2.33;;;5.90;60.70;;;9.11;42.47;98466.13;5060217;28;20425;-54
2023/04/03 07:51:33;;;;;;;4.93;2.40;;;6.00;60.00;;;9.12;42.52;98468.66;5060908;28;20501;-55
2023/04/03 07:54:00;;;;;;;2.97;2.43;;;6.00;60.20;;;9.13;42.53;98467.69;5061752;28;20044;-56
2023/04/03 07:56:28;;;;;;;6.80;2.60;;;6.00;59.60;;;9.15;42.46;98475.50;5063118;28;20037;-55
2023/04/03 07:58:56;;;;;;;6.70;2.93;;;5.90;60.00;;;9.16;42.12;98475.38;5059676;28;20059;-55
2023/04/03 08:01:23;;;;;;;5.20;3.10;;;5.90;59.60;;;9.06;42.25;98479.81;5059607;28;20417;-54
2023/04/03 08:03:51;;;;;;;3.23;2.53;;;5.90;59.40;;;9.02;42.15;98476.56;5059101;28;20041;-53
2023/04/03 08:06:19;;;;;;;5.13;3.03;;;5.90;59.50;;;8.98;42.43;98476.97;5059819;28;20048;-53
2023/04/03 08:08:59;;;;;;;4.80;3.60;;;5.90;59.70;;;8.90;42.23;98474.09;5052636;28;20044;-56
2023/04/03 08:11:27;;;;;;;3.40;2.63;;;5.90;59.70;;;8.87;42.89;98486.69;5059880;28;20041;-54
2023/04/03 08:13:55;;;;;;;6.50;2.93;;;5.90;60.20;;;8.97;42.86;98476.13;5062661;28;20497;-50
2023/04/03 08:16:27;;;;;;;6.40;3.40;;;5.90;60.20;;;9.09;42.51;98484.00;5044978;28;20501;-54
2023/04/03 08:18:55;;;;;;;4.70;2.73;;;6.00;59.80;;;9.01;42.50;98489.97;5051770;28;20037;-51
2023/04/03 08:21:23;;;;;;;4.60;2.80;;;6.10;59.80;;;8.94;42.77;98481.72;5059551;28;20044;-56
2023/04/03 08:23:51;;;;;;;3.27;2.70;;;6.00;59.80;;;8.95;42.89;98477.22;5061413;28;20033;-55
2023/04/03 08:26:21;;;;;;;3.97;2.60;;;6.00;60.70;;;8.98;43.14;98483.13;5063026;28;20528;-54
2023/04/03 08:28:49;;;;;;;3.80;2.57;;;6.10;60.20;;;9.03;42.99;98480.06;5059917;28;20110;-55
2023/04/03 08:31:19;;;;;;;8.80;3.03;;;6.10;59.70;;;9.10;42.65;98483.88;5059294;28;20414;-55
2023/04/03 08:33:47;;;;;;;3.83;2.50;;;6.20;59.30;;;9.11;42.79;98479.41;5061510;28;20051;-54
2023/04/03 08:36:26;;;;;;;5.60;2.53;;;6.20;59.30;;;9.19;42.77;98476.94;5062997;28;20044;-53
2023/04/03 08:38:55;;;;;;;4.33;2.63;;;6.30;59.40;;;9.22;42.55;98472.19;5050960;28;20037;-53
2023/04/03 08:41:34;;;;;;;5.30;2.83;;;6.30;59.20;;;9.27;42.77;98482.44;5059357;28;20052;-53
2023/04/03 08:44:45;;;;;;;3.83;2.47;;;6.40;59.10;;;9.26;42.39;98481.59;5051946;28;20040;-52
2023/04/03 08:48:05;;;;;;;3.90;2.60;;;6.40;59.00;;;9.27;42.46;98480.63;5053558;28;20048;-55
2023/04/03 08:51:05;;;;;;;3.73;2.70;;;6.40;58.40;;;9.38;42.72;98485.03;5056697;28;20049;-52
2023/04/03 08:53:44;;;;;;;3.27;2.23;;;6.50;58.70;;;9.55;42.15;98483.53;5059809;28;20048;-54
2023/04/03 08:56:15;;;;;;;3.90;2.50;;;6.50;58.70;;;9.67;42.05;98484.28;5026459;28;20486;-55
2023/04/03 08:59:07;;;;;;;4.40;2.87;;;6.60;58.60;;;9.77;41.65;98478.97;5038648;28;20410;-56
2023/04/03 09:01:38;;;;;;;4.30;2.80;;;6.70;57.50;;;9.87;41.81;98487.84;5043381;28;20037;-56
2023/04/03 09:04:13;;;;;;;4.20;2.90;;;6.80;57.30;;;9.90;41.82;98487.56;5040303;28;20491;-55
2023/04/03 09:06:51;;;;;;;3.37;2.70;;;6.90;57.80;;;10.00;41.72;98487.56;5033079;28;20053;-53
2023/04/03 09:09:41;;;;;;;6.10;3.77;;;7.00;57.40;;;10.04;41.49;98489.84;5032599;28;20041;-54
2023/04/03 09:12:29;;;;;;;4.40;2.77;;;7.00;58.20;;;9.98;41.61;98487.75;5031985;28;20056;-55
2023/04/03 09:15:20;;;;;;;3.33;2.37;;;7.00;56.50;;;9.97;41.42;98491.38;5048313;28;20045;-56
2023/04/03 09:18:11;;;;;;;4.33;2.60;;;7.00;56.20;;;9.96;40.83;98489.66;5047031;28;20045;-50
2023/04/03 09:21:24;;;;;;;3.70;2.07;;;7.00;55.00;;;9.91;41.58;98491.09;5061135;28;20041;-54
2023/04/03 09:23:57;;;;;;;4.93;2.37;;;7.00;55.60;;;10.10;41.27;98490.25;5061989;28;20037;-53
2023/04/03 09:26:36;;;;;;;5.00;2.30;;;7.00;56.30;;;10.22;40.95;98483.84;5061785;28;20068;-56
2023/04/03 09:29:07;;;;;;;5.10;2.83;;;7.10;56.40;;;10.23;40.51;98477.53;5054555;28;20041;-52
2023/04/03 09:31:42;;;;;;;4.93;2.63;;;7.20;55.70;;;10.23;41.10;98478.38;5063137;28;20048;-55
2023/04/03 09:34:41;;;;;;;5.80;2.73;;;7.30;55.80;;;10.31;40.35;98484.84;5064566;28;20048;-54
2023/04/03 09:37:09;;;;;;;5.67;2.67;;;7.30;54.50;;;10.27;40.34;98483.41;5054975;28;20417;-55
2023/04/03 09:39:56;;;;;;;5.97;2.30;;;7.40;55.00;;;10.25;40.09;98481.75;5062798;28;20037;-55
2023/04/03 09:42:25;;;;;;;2.90;2.30;;;7.40;53.70;;;10.23;39.87;98481.03;5064498;28;20036;-55
2023/04/03 09:45:03;;;;;;;6.73;2.70;;;7.40;54.30;;;10.19;39.94;98481.44;5062834;28;20086;-54
2023/04/03 09:47:33;;;;;;;3.07;2.10;;;7.30;53.70;;;10.14;39.89;98478.34;5061001;28;20060;-53
2023/04/03 09:50:13;;;;;;;3.27;2.60;;;7.30;54.30;;;10.15;40.06;98478.22;5054525;28;20421;-56
2023/04/03 09:52:43;;;;;;;5.33;3.07;;;7.30;53.50;;;10.13;39.94;98482.00;5062729;28;20052;-53
2023/04/03 09:55:27;;;;;;;2.90;2.63;;;7.30;54.70;;;10.23;40.28;98477.53;5065633;28;20047;-55
2023/04/03 09:58:04;;;;;;;5.00;2.70;;;7.30;54.60;;;10.28;40.67;98477.97;5062788;28;20048;-55
2023/04/03 10:00:39;;;;;;;5.90;3.10;;;7.40;55.20;;;10.35;39.99;98476.47;5061216;28;20041;-55
2023/04/03 10:03:35;;;;;;;2.90;2.60;;;7.40;54.30;;;10.37;40.03;98471.84;5054472;28;20078;-54
2023/04/03 10:06:07;;;;;;;3.33;2.47;;;7.50;54.00;;;10.52;40.39;98479.41;5054684;28;20419;-54
2023/04/03 10:08:35;;;;;;;3.20;2.43;;;7.60;55.20;;;10.63;39.84;98468.63;5061784;28;20041;-53
2023/04/03 10:11:16;;;;;;;3.03;2.23;;;7.70;54.70;;;10.74;40.25;98472.94;5065372;28;20081;-53
2023/04/03 10:13:56;;;;;;;3.67;2.87;;;7.80;54.10;;;10.79;39.62;98471.53;5063425;28;20071;-53
2023/04/03 10:16:37;;;;;;;4.30;2.47;;;7.90;53.60;;;10.79;39.57;98476.84;5067349;28;20055;-54
2023/04/03 10:19:23;;;;;;;4.87;2.30;;;7.80;53.50;;;10.75;39.31;98470.13;5052611;28;20429;-52
2023/04/03 10:22:14;;;;;;;3.23;2.13;;;7.90;52.40;;;10.74;39.64;98462.28;5064028;28;20482;-53
2023/04/03 10:24:53;;;;;;;3.23;2.50;;;7.80;53.30;;;10.75;39.03;98466.63;5047342;28;20055;-54
2023/04/03 10:27:59;;;;;;;5.33;2.27;;;7.80;53.00;;;10.74;39.41;98468.47;5060513;28;20498;-55
2023/04/03 10:30:52;;;;;;;3.97;2.20;;;7.80;52.50;;;10.71;38.96;98460.75;5057140;28;20052;-56
2023/04/03 10:33:34;;;;;;;3.53;2.50;;;7.70;51.20;;;10.64;38.79;98465.81;5055696;28;20451;-54
2023/04/03 10:36:49;;;;;;;5.17;2.40;;;7.70;52.00;;;10.52;39.12;98468.75;5053819;28;20049;-54
2023/04/03 10:40:01;;;;;;;3.53;2.30;;;7.60;51.80;;;10.40;38.91;98460.91;5009965;28;20064;-53
2023/04/03 10:42:54;;;;;;;3.93;2.10;;;7.50;52.20;;;10.32;38.96;98466.09;5055354;28;20041;-54
2023/04/03 10:45:31;;;;;;;4.17;2.20;;;7.40;51.70;;;10.30;38.88;98469.84;5054935;28;20037;-54
2023/04/03 10:48:05;;;;;;;3.67;1.93;;;7.40;51.90;;;10.28;39.01;98466.50;5063395;28;20048;-55
2023/04/03 10:51:11;;;;;;;3.03;2.27;;;7.40;52.30;;;10.25;38.79;98462.25;5063357;28;20051;-53
2023/04/03 10:54:06;;;;;;;3.43;2.47;;;7.40;51.70;;;10.35;39.22;98459.63;5058242;28;20140;-54